Time;durP1;ratioP1;P1;durP2;ratioP2;P2;SDS_P1;SDS_P2;PMS_P1;PMS_P2;Temp;Humidity;BMP_temperature;BMP_pressure;BME280_temperature;BME280_humidity;BME280_pressure;Samples;Min_cycle;Max_cycle;Signal;HPM_P1;HPM_P2
2022/01/21 00:01:38;;;;;;;;;;;;;;;;;;7393473;19;1893;-43
2022/01/21 00:04:07;;;;;;;;;;;;;;;;;;7392881;19;2257;-48
2022/01/21 00:06:34;;;;;;;;;;;;;;;;;;7393842;19;2210;-42
2022/01/21 00:09:02;;;;;;;;;;;;;;;;;;7393617;19;2145;-43
2022/01/21 00:11:30;;;;;;;;;;;;;;;;;;7396174;19;1995;-42
2022/01/21 00:13:59;;;;;;;;;;;;;;;;;;7391645;19;2160;-43
2022/01/21 00:16:27;;;;;;;;;;;;;;;;;;7392096;19;2170;-46
2022/01/21 00:19:04;;;;;;;;;;;;;;;;;;7392739;19;2202;-46
2022/01/21 00:32:35;;;;;;;;;;;;;;;;;;7392571;19;2174;-43
2022/01/21 00:35:03;;;;;;;;;;;;;;;;;;7392691;19;2153;-49
2022/01/21 00:37:31;;;;;;;;;;;;;;;;;;7392793;19;2132;-43
2022/01/21 00:40:00;;;;;;;;;;;;;;;;;;7390109;19;2201;-43
2022/01/21 00:44:59;;;;;;;;;;;;;;;;;;7392313;19;2202;-41
2022/01/21 00:47:28;;;;;;;;;;;;;;;;;;7389933;19;2181;-44
2022/01/21 00:49:56;;;;;;;;;;;;;;;;;;7391693;19;2176;-44
2022/01/21 00:52:23;;;;;;;;;;;;;;;;;;7391326;19;2231;-46
2022/01/21 00:54:51;;;;;;;;;;;;;;;;;;7389459;19;2009;-43
2022/01/21 00:57:18;;;;;;;;;;;;;;;;;;7389747;19;2170;-44
2022/01/21 00:59:45;;;;;;;;;;;;;;;;;;7390951;19;2040;-42
2022/01/21 01:02:13;;;;;;;;;;;;;;;;;;7391114;19;2245;-47
2022/01/21 01:04:40;;;;;;;;;;;;;;;;;;7391313;19;2182;-44
2022/01/21 01:07:08;;;;;;;;;;;;;;;;;;7391997;19;2138;-43
2022/01/21 01:09:35;;;;;;;;;;;;;;;;;;7391699;19;2160;-45
2022/01/21 01:12:23;;;;;;;;;;;;;;;;;;7394890;19;2153;-43
2022/01/21 01:19:56;;;;;;;;;;;;;;;;;;7386337;19;2149;-44
2022/01/21 01:20:49;;;;;;;;;;;;;;;;;;7386278;19;2175;-42
2022/01/21 01:23:49;;;;;;;;;;;;;;;;;;7390033;19;2191;-44
2022/01/21 01:29:02;;;;;;;;;;;;;;;;;;7389614;19;2494;-44
2022/01/21 01:31:29;;;;;;;;;;;;;;;;;;7390427;19;2200;-42
2022/01/21 01:33:59;;;;;;;;;;;;;;;;;;7389294;19;2106;-46
2022/01/21 01:36:26;;;;;;;;;;;;;;;;;;7388982;19;2163;-44
2022/01/21 01:41:28;;;;;;;;;;;;;;;;;;7388851;19;2301;-45
2022/01/21 01:49:32;;;;;;;;;;;;;;;;;;7390278;19;2075;-44
2022/01/21 01:52:00;;;;;;;;;;;;;;;;;;7390015;19;2272;-42
2022/01/21 01:54:28;;;;;;;;;;;;;;;;;;7390360;19;2229;-42
2022/01/21 01:56:56;;;;;;;;;;;;;;;;;;7395508;19;2166;-43
2022/01/21 01:59:23;;;;;;;;;;;;;;;;;;7395361;19;2315;-44
2022/01/21 02:01:55;;;;;;;;;;;;;;;;;;7397207;19;2029;-44
2022/01/21 02:04:24;;;;;;;;;;;;;;;;;;7396661;19;2266;-47
2022/01/21 02:06:51;;;;;;;;;;;;;;;;;;7394905;19;2083;-43
2022/01/21 02:09:19;;;;;;;;;;;;;;;;;;7397107;19;2169;-44
2022/01/21 02:11:46;;;;;;;;;;;;;;;;;;7398022;19;2241;-45
2022/01/21 02:14:20;;;;;;;;;;;;;;;;;;7394684;19;2149;-46
2022/01/21 02:22:16;;;;;;;;;;;;;;;;;;7396444;19;2190;-46
2022/01/21 02:24:51;;;;;;;;;;;;;;;;;;7396613;19;2096;-44
2022/01/21 02:27:19;;;;;;;;;;;;;;;;;;7394824;19;2199;-45
2022/01/21 02:29:49;;;;;;;;;;;;;;;;;;7394358;19;2221;-42
2022/01/21 02:32:18;;;;;;;;;;;;;;;;;;7394775;19;2187;-42
2022/01/21 02:34:46;;;;;;;;;;;;;;;;;;7392150;19;2176;-46
2022/01/21 02:37:15;;;;;;;;;;;;;;;;;;7395251;19;2122;-44
2022/01/21 02:39:42;;;;;;;;;;;;;;;;;;7396513;19;2202;-43
2022/01/21 02:42:10;;;;;;;;;;;;;;;;;;7395740;19;2096;-42
2022/01/21 02:44:39;;;;;;;;;;;;;;;;;;7394485;19;2176;-44
2022/01/21 02:47:07;;;;;;;;;;;;;;;;;;7393770;19;2072;-42
2022/01/21 02:49:40;;;;;;;;;;;;;;;;;;7397047;19;2243;-45
2022/01/21 02:52:08;;;;;;;;;;;;;;;;;;7394123;19;2173;-43
2022/01/21 02:54:35;;;;;;;;;;;;;;;;;;7392163;19;2177;-42
2022/01/21 02:57:04;;;;;;;;;;;;;;;;;;7394164;19;2081;-42
2022/01/21 02:59:31;;;;;;;;;;;;;;;;;;7395643;19;2143;-43
2022/01/21 03:01:59;;;;;;;;;;;;;;;;;;7394431;19;2142;-44
2022/01/21 03:04:45;;;;;;;;;;;;;;;;;;7394181;19;2164;-44
2022/01/21 03:07:12;;;;;;;;;;;;;;;;;;7393428;19;2167;-44
2022/01/21 03:09:40;;;;;;;;;;;;;;;;;;7394434;19;2210;-47
2022/01/21 03:12:07;;;;;;;;;;;;;;;;;;7396766;19;1935;-43
2022/01/21 03:14:34;;;;;;;;;;;;;;;;;;7393410;19;2117;-45
2022/01/21 03:17:01;;;;;;;;;;;;;;;;;;7392127;19;2251;-45
2022/01/21 03:19:29;;;;;;;;;;;;;;;;;;7393696;19;2112;-50
2022/01/21 03:21:56;;;;;;;;;;;;;;;;;;7394584;19;2068;-43
2022/01/21 03:24:23;;;;;;;;;;;;;;;;;;7394538;19;2196;-47
2022/01/21 03:26:51;;;;;;;;;;;;;;;;;;7392623;19;2131;-46
2022/01/21 03:29:18;;;;;;;;;;;;;;;;;;7392181;19;2265;-44
2022/01/21 03:31:45;;;;;;;;;;;;;;;;;;7394236;19;2273;-44
2022/01/21 03:34:13;;;;;;;;;;;;;;;;;;7391951;19;2127;-43
2022/01/21 03:36:42;;;;;;;;;;;;;;;;;;7392923;19;2285;-43
2022/01/21 03:39:10;;;;;;;;;;;;;;;;;;7392362;19;2401;-46
2022/01/21 03:41:39;;;;;;;;;;;;;;;;;;7391826;19;1927;-42
2022/01/21 03:44:08;;;;;;;;;;;;;;;;;;7392261;19;2118;-46
2022/01/21 03:46:35;;;;;;;;;;;;;;;;;;7391551;19;2107;-46
2022/01/21 03:49:04;;;;;;;;;;;;;;;;;;7394665;19;2152;-46
2022/01/21 03:51:33;;;;;;;;;;;;;;;;;;7395061;19;2287;-47
2022/01/21 03:54:00;;;;;;;;;;;;;;;;;;7390541;19;2189;-41
2022/01/21 03:56:30;;;;;;;;;;;;;;;;;;7391767;19;2207;-46
2022/01/21 03:58:58;;;;;;;;;;;;;;;;;;7391886;19;2190;-41
2022/01/21 04:01:28;;;;;;;;;;;;;;;;;;7392233;19;2183;-43
2022/01/21 04:03:56;;;;;;;;;;;;;;;;;;7393099;19;1995;-43
2022/01/21 04:06:24;;;;;;;;;;;;;;;;;;7391542;19;2015;-43
2022/01/21 04:08:51;;;;;;;;;;;;;;;;;;7390413;19;2151;-43
2022/01/21 04:11:18;;;;;;;;;;;;;;;;;;7393686;19;2205;-44
2022/01/21 04:13:47;;;;;;;;;;;;;;;;;;7390871;19;2071;-45
2022/01/21 04:16:17;;;;;;;;;;;;;;;;;;7392682;19;2071;-43
2022/01/21 04:18:45;;;;;;;;;;;;;;;;;;7388276;19;2245;-45
2022/01/21 04:21:13;;;;;;;;;;;;;;;;;;7391111;19;2153;-49
2022/01/21 04:23:40;;;;;;;;;;;;;;;;;;7392824;19;2442;-43
2022/01/21 04:26:12;;;;;;;;;;;;;;;;;;7391480;19;2124;-41
2022/01/21 04:28:41;;;;;;;;;;;;;;;;;;7390522;19;2060;-41
2022/01/21 04:31:08;;;;;;;;;;;;;;;;;;7392168;19;2339;-42
2022/01/21 04:33:41;;;;;;;;;;;;;;;;;;7390597;19;2197;-44
2022/01/21 04:36:08;;;;;;;;;;;;;;;;;;7389788;19;2073;-43
2022/01/21 04:38:38;;;;;;;;;;;;;;;;;;7390874;19;2063;-43
2022/01/21 04:41:25;;;;;;;;;;;;;;;;;;7390459;19;2180;-43
2022/01/21 04:49:26;;;;;;;;;;;;;;;;;;7389998;19;2072;-42
2022/01/21 04:52:03;;;;;;;;;;;;;;;;;;7390156;19;2216;-44
2022/01/21 04:54:43;;;;;;;;;;;;;;;;;;7388836;19;2170;-47
2022/01/21 04:57:10;;;;;;;;;;;;;;;;;;7389973;19;2146;-45
2022/01/21 04:59:39;;;;;;;;;;;;;;;;;;7391900;19;2157;-45
2022/01/21 05:02:07;;;;;;;;;;;;;;;;;;7389249;19;2102;-41
2022/01/21 05:04:34;;;;;;;;;;;;;;;;;;7389789;19;2157;-47
2022/01/21 05:07:04;;;;;;;;;;;;;;;;;;7389610;19;2128;-42
2022/01/21 05:09:34;;;;;;;;;;;;;;;;;;7389430;19;2317;-47
2022/01/21 05:12:07;;;;;;;;;;;;;;;;;;7393302;19;2165;-43
2022/01/21 05:17:28;;;;;;;;;;;;;;;;;;7388168;19;2016;-43
2022/01/21 05:19:55;;;;;;;;;;;;;;;;;;7389081;19;2196;-45
2022/01/21 05:22:51;;;;;;;;;;;;;;;;;;7387773;19;2088;-45
2022/01/21 05:25:19;;;;;;;;;;;;;;;;;;7389524;19;1957;-42
2022/01/21 05:27:53;;;;;;;;;;;;;;;;;;7389943;19;2213;-42
2022/01/21 05:30:21;;;;;;;;;;;;;;;;;;7396502;19;2270;-44
2022/01/21 05:33:06;;;;;;;;;;;;;;;;;;7396908;19;2169;-44
2022/01/21 05:35:52;;;;;;;;;;;;;;;;;;7397799;19;2250;-44
2022/01/21 05:38:48;;;;;;;;;;;;;;;;;;7397249;19;2065;-46
2022/01/21 05:41:29;;;;;;;;;;;;;;;;;;7395839;19;1998;-44
2022/01/21 05:46:22;;;;;;;;;;;;;;;;;;7397842;19;2061;-43
2022/01/21 05:47:11;;;;;;;;;;;;;;;;;;7396684;19;2204;-43
2022/01/21 05:50:02;;;;;;;;;;;;;;;;;;7396372;19;2113;-48
2022/01/21 05:52:56;;;;;;;;;;;;;;;;;;7395336;19;2194;-42
2022/01/21 05:55:46;;;;;;;;;;;;;;;;;;7393839;19;2246;-42
2022/01/21 05:58:33;;;;;;;;;;;;;;;;;;7395820;19;2422;-43
2022/01/21 06:01:00;;;;;;;;;;;;;;;;;;7395774;19;2119;-44
2022/01/21 06:03:28;;;;;;;;;;;;;;;;;;7396721;19;2171;-42
2022/01/21 06:05:55;;;;;;;;;;;;;;;;;;7395272;19;2064;-43
2022/01/21 06:08:23;;;;;;;;;;;;;;;;;;7395970;19;2309;-49
2022/01/21 06:10:51;;;;;;;;;;;;;;;;;;7397725;19;2127;-43
2022/01/21 06:13:19;;;;;;;;;;;;;;;;;;7397508;19;2146;-43
2022/01/21 06:15:47;;;;;;;;;;;;;;;;;;7394772;19;1924;-42
2022/01/21 06:18:14;;;;;;;;;;;;;;;;;;7393967;19;2350;-44
2022/01/21 06:20:41;;;;;;;;;;;;;;;;;;7397498;19;2235;-45
2022/01/21 06:23:08;;;;;;;;;;;;;;;;;;7397114;19;2082;-42
2022/01/21 06:25:36;;;;;;;;;;;;;;;;;;7396303;19;2229;-44
2022/01/21 06:28:03;;;;;;;;;;;;;;;;;;7396660;19;1954;-44
2022/01/21 06:30:30;;;;;;;;;;;;;;;;;;7395972;19;2391;-43
2022/01/21 06:32:57;;;;;;;;;;;;;;;;;;7396459;19;2245;-41
2022/01/21 06:35:25;;;;;;;;;;;;;;;;;;7394633;19;2140;-48
2022/01/21 06:37:52;;;;;;;;;;;;;;;;;;7395788;19;2151;-41
2022/01/21 06:40:20;;;;;;;;;;;;;;;;;;7394851;19;2151;-47
2022/01/21 06:42:48;;;;;;;;;;;;;;;;;;7394547;19;2226;-51
2022/01/21 06:45:16;;;;;;;;;;;;;;;;;;7395391;19;2115;-47
2022/01/21 06:47:43;;;;;;;;;;;;;;;;;;7395697;19;2005;-46
2022/01/21 06:50:10;;;;;;;;;;;;;;;;;;7394582;19;2115;-41
2022/01/21 06:52:38;;;;;;;;;;;;;;;;;;7394750;19;2165;-42
2022/01/21 06:55:05;;;;;;;;;;;;;;;;;;7391638;19;2044;-46
2022/01/21 06:57:37;;;;;;;;;;;;;;;;;;7394391;19;2078;-42
2022/01/21 07:00:07;;;;;;;;;;;;;;;;;;7395270;19;2065;-43
2022/01/21 07:02:34;;;;;;;;;;;;;;;;;;7395979;19;2194;-43
2022/01/21 07:05:02;;;;;;;;;;;;;;;;;;7395002;19;2013;-42
2022/01/21 07:07:29;;;;;;;;;;;;;;;;;;7395362;19;2175;-42
2022/01/21 07:09:56;;;;;;;;;;;;;;;;;;7394914;19;2136;-42
2022/01/21 07:12:24;;;;;;;;;;;;;;;;;;7399188;19;2276;-42
2022/01/21 07:14:51;;;;;;;;;;;;;;;;;;7393997;19;1925;-42
2022/01/21 07:17:18;;;;;;;;;;;;;;;;;;7393988;19;2168;-42
2022/01/21 07:19:49;;;;;;;;;;;;;;;;;;7395061;19;2202;-42
2022/01/21 07:22:16;;;;;;;;;;;;;;;;;;7395555;19;2181;-42
2022/01/21 07:24:43;;;;;;;;;;;;;;;;;;7394443;19;2187;-42
2022/01/21 07:27:10;;;;;;;;;;;;;;;;;;7394335;19;2145;-42
2022/01/21 07:29:38;;;;;;;;;;;;;;;;;;7394936;19;2240;-45
2022/01/21 07:32:05;;;;;;;;;;;;;;;;;;7394471;19;2211;-42
2022/01/21 07:34:33;;;;;;;;;;;;;;;;;;7393308;19;2230;-42
2022/01/21 07:37:00;;;;;;;;;;;;;;;;;;7394096;19;2209;-42
2022/01/21 07:39:27;;;;;;;;;;;;;;;;;;7393738;19;2077;-42
2022/01/21 07:41:54;;;;;;;;;;;;;;;;;;7394291;19;2216;-42
2022/01/21 07:44:22;;;;;;;;;;;;;;;;;;7394386;19;2154;-42
2022/01/21 07:46:49;;;;;;;;;;;;;;;;;;7393937;19;2110;-48
2022/01/21 07:49:16;;;;;;;;;;;;;;;;;;7392550;19;2172;-43
2022/01/21 07:51:44;;;;;;;;;;;;;;;;;;7393616;19;2156;-42
2022/01/21 07:54:11;;;;;;;;;;;;;;;;;;7393825;19;2173;-42
2022/01/21 07:56:38;;;;;;;;;;;;;;;;;;7394122;19;2036;-42
2022/01/21 07:59:07;;;;;;;;;;;;;;;;;;7393708;19;1921;-42
2022/01/21 08:01:35;;;;;;;;;;;;;;;;;;7392969;19;2288;-42
2022/01/21 08:04:02;;;;;;;;;;;;;;;;;;7392734;19;2130;-43
2022/01/21 08:06:30;;;;;;;;;;;;;;;;;;7393144;19;2306;-42
2022/01/21 08:08:57;;;;;;;;;;;;;;;;;;7393202;19;2247;-42
2022/01/21 08:11:25;;;;;;;;;;;;;;;;;;7395008;19;2158;-43
2022/01/21 08:13:52;;;;;;;;;;;;;;;;;;7392982;19;2207;-43
2022/01/21 08:16:20;;;;;;;;;;;;;;;;;;7392072;19;2316;-45
2022/01/21 08:18:48;;;;;;;;;;;;;;;;;;7392619;19;2103;-42
2022/01/21 08:21:18;;;;;;;;;;;;;;;;;;7392265;19;2130;-42
2022/01/21 08:23:47;;;;;;;;;;;;;;;;;;7392476;19;2045;-44
2022/01/21 08:26:14;;;;;;;;;;;;;;;;;;7392293;19;2231;-42
2022/01/21 08:28:41;;;;;;;;;;;;;;;;;;7392896;19;2053;-42
2022/01/21 08:31:08;;;;;;;;;;;;;;;;;;7392540;19;1870;-43
2022/01/21 08:33:35;;;;;;;;;;;;;;;;;;7391765;19;1496;-42
2022/01/21 08:36:03;;;;;;;;;;;;;;;;;;7390906;19;2077;-42
2022/01/21 08:38:30;;;;;;;;;;;;;;;;;;7390709;19;2132;-42
2022/01/21 08:40:57;;;;;;;;;;;;;;;;;;7391972;19;2067;-42
2022/01/21 08:43:24;;;;;;;;;;;;;;;;;;7392144;19;2081;-42
2022/01/21 08:45:52;;;;;;;;;;;;;;;;;;7391453;19;2167;-42
2022/01/21 08:48:19;;;;;;;;;;;;;;;;;;7392051;19;2106;-42
2022/01/21 08:50:46;;;;;;;;;;;;;;;;;;7392174;19;2180;-42
2022/01/21 08:56:00;;;;;;;;;;;;;;;;;;7389881;19;2214;-42
2022/01/21 08:58:27;;;;;;;;;;;;;;;;;;7390943;19;2173;-42
2022/01/21 09:00:54;;;;;;;;;;;;;;;;;;7392233;19;2073;-42
2022/01/21 09:03:21;;;;;;;;;;;;;;;;;;7394015;19;2194;-46
2022/01/21 09:05:50;;;;;;;;;;;;;;;;;;7399543;19;2364;-46
2022/01/21 09:08:18;;;;;;;;;;;;;;;;;;7399133;19;2091;-44
2022/01/21 09:10:46;;;;;;;;;;;;;;;;;;7400289;19;2115;-43
2022/01/21 09:13:13;;;;;;;;;;;;;;;;;;7398963;19;2132;-41
2022/01/21 09:15:40;;;;;;;;;;;;;;;;;;7396746;19;2030;-42
2022/01/21 09:18:08;;;;;;;;;;;;;;;;;;7395712;19;2175;-49
2022/01/21 09:20:36;;;;;;;;;;;;;;;;;;7397754;19;2161;-40
2022/01/21 09:23:04;;;;;;;;;;;;;;;;;;7398618;19;2183;-41
2022/01/21 09:25:31;;;;;;;;;;;;;;;;;;7398894;19;2065;-42
2022/01/21 09:28:01;;;;;;;;;;;;;;;;;;7398916;19;2167;-41
2022/01/21 09:30:28;;;;;;;;;;;;;;;;;;7398376;19;2233;-42
2022/01/21 09:32:56;;;;;;;;;;;;;;;;;;7397914;19;2251;-41
2022/01/21 09:35:24;;;;;;;;;;;;;;;;;;7396336;19;2006;-41
2022/01/21 09:37:51;;;;;;;;;;;;;;;;;;7396970;19;2127;-41
2022/01/21 09:40:42;;;;;;;;;;;;;;;;;;7398029;19;1865;-42
2022/01/21 09:43:10;;;;;;;;;;;;;;;;;;7398187;19;2149;-41
2022/01/21 09:45:38;;;;;;;;;;;;;;;;;;7397904;19;2117;-44
2022/01/21 09:48:06;;;;;;;;;;;;;;;;;;7397458;19;2172;-41
2022/01/21 09:50:34;;;;;;;;;;;;;;;;;;7398246;19;2255;-42
2022/01/21 09:53:02;;;;;;;;;;;;;;;;;;7397865;19;2190;-41
2022/01/21 09:55:29;;;;;;;;;;;;;;;;;;7396128;19;2007;-41
2022/01/21 09:57:57;;;;;;;;;;;;;;;;;;7398064;19;2247;-44
2022/01/21 10:00:25;;;;;;;;;;;;;;;;;;7397168;19;2228;-41
2022/01/21 10:02:53;;;;;;;;;;;;;;;;;;7397384;19;2230;-42
2022/01/21 10:05:20;;;;;;;;;;;;;;;;;;7396552;19;2158;-42
2022/01/21 10:07:48;;;;;;;;;;;;;;;;;;7398118;19;2231;-41
2022/01/21 10:10:15;;;;;;;;;;;;;;;;;;7395103;19;2165;-48
2022/01/21 10:12:49;;;;;;;;;;;;;;;;;;7397308;19;2087;-42
2022/01/21 10:15:17;;;;;;;;;;;;;;;;;;7394343;19;2191;-42
2022/01/21 10:18:00;;;;;;;;;;;;;;;;;;7394228;19;1947;-42
2022/01/21 10:20:37;;;;;;;;;;;;;;;;;;7396922;19;2154;-42
2022/01/21 10:23:06;;;;;;;;;;;;;;;;;;7395983;19;2236;-42
2022/01/21 10:25:34;;;;;;;;;;;;;;;;;;7396244;19;2234;-42
2022/01/21 10:28:08;;;;;;;;;;;;;;;;;;7396410;19;2200;-42
2022/01/21 10:30:36;;;;;;;;;;;;;;;;;;7396830;19;2080;-42
2022/01/21 10:33:21;;;;;;;;;;;;;;;;;;7396858;19;2206;-42
2022/01/21 10:35:51;;;;;;;;;;;;;;;;;;7395588;19;2217;-42
2022/01/21 10:38:27;;;;;;;;;;;;;;;;;;7396069;19;2184;-45
2022/01/21 10:41:05;;;;;;;;;;;;;;;;;;7396400;19;2107;-41
2022/01/21 10:43:32;;;;;;;;;;;;;;;;;;7395636;19;2182;-42
2022/01/21 10:46:00;;;;;;;;;;;;;;;;;;7396684;19;2191;-43
2022/01/21 10:48:28;;;;;;;;;;;;;;;;;;7396457;19;2250;-41
2022/01/21 10:51:34;;;;;;;;;;;;;;;;;;7395509;19;2116;-50
2022/01/21 10:54:18;;;;;;;;;;;;;;;;;;7392403;19;2167;-43
2022/01/21 10:57:04;;;;;;;;;;;;;;;;;;7389417;19;2155;-45
2022/01/21 10:59:44;;;;;;;;;;;;;;;;;;7394732;19;2344;-42
2022/01/21 11:02:12;;;;;;;;;;;;;;;;;;7395604;19;2231;-44
2022/01/21 11:04:41;;;;;;;;;;;;;;;;;;7395604;19;2107;-42
2022/01/21 11:07:11;;;;;;;;;;;;;;;;;;7393498;19;2086;-42
2022/01/21 11:09:38;;;;;;;;;;;;;;;;;;7395862;19;2107;-45
2022/01/21 11:12:08;;;;;;;;;;;;;;;;;;7398691;19;2093;-43
2022/01/21 11:14:35;;;;;;;;;;;;;;;;;;7395311;19;2171;-42
2022/01/21 11:17:15;;;;;;;;;;;;;;;;;;7392883;19;2165;-41
2022/01/21 11:20:00;;;;;;;;;;;;;;;;;;7395205;19;2339;-47
2022/01/21 11:22:29;;;;;;;;;;;;;;;;;;7395333;19;2061;-42
2022/01/21 11:24:59;;;;;;;;;;;;;;;;;;7394007;19;2161;-42
2022/01/21 11:27:26;;;;;;;;;;;;;;;;;;7393797;19;2102;-42
2022/01/21 11:29:54;;;;;;;;;;;;;;;;;;7393990;19;2227;-50
2022/01/21 11:32:22;;;;;;;;;;;;;;;;;;7394626;19;2159;-42
2022/01/21 11:34:49;;;;;;;;;;;;;;;;;;7394701;19;2222;-42
2022/01/21 11:37:17;;;;;;;;;;;;;;;;;;7391937;19;2192;-41
2022/01/21 11:39:44;;;;;;;;;;;;;;;;;;7392280;19;2128;-41
2022/01/21 11:42:12;;;;;;;;;;;;;;;;;;7393581;19;2282;-41
2022/01/21 11:44:41;;;;;;;;;;;;;;;;;;7392568;19;2268;-41
2022/01/21 11:49:40;;;;;;;;;;;;;;;;;;7393641;19;2238;-41
2022/01/21 11:52:13;;;;;;;;;;;;;;;;;;7393104;19;2068;-45
2022/01/21 11:54:41;;;;;;;;;;;;;;;;;;7393701;19;2217;-42
2022/01/21 11:57:10;;;;;;;;;;;;;;;;;;7392507;19;2171;-41
2022/01/21 11:59:55;;;;;;;;;;;;;;;;;;7393605;19;2017;-42
2022/01/21 12:02:29;;;;;;;;;;;;;;;;;;7393755;19;2349;-41
2022/01/21 12:04:57;;;;;;;;;;;;;;;;;;7392856;19;2224;-41
2022/01/21 12:07:40;;;;;;;;;;;;;;;;;;7393045;19;2309;-44
2022/01/21 12:10:11;;;;;;;;;;;;;;;;;;7393104;19;2159;-43
2022/01/21 12:12:49;;;;;;;;;;;;;;;;;;7392783;19;2139;-41
2022/01/21 12:15:22;;;;;;;;;;;;;;;;;;7392797;19;2281;-41
2022/01/21 12:17:55;;;;;;;;;;;;;;;;;;7392020;19;2279;-48
2022/01/21 12:20:32;;;;;;;;;;;;;;;;;;7392739;19;2101;-41
2022/01/21 12:23:12;;;;;;;;;;;;;;;;;;7392528;19;2256;-45
2022/01/21 12:25:58;;;;;;;;;;;;;;;;;;7392716;19;2102;-42
2022/01/21 12:28:25;;;;;;;;;;;;;;;;;;7392585;19;2167;-41
2022/01/21 12:30:53;;;;;;;;;;;;;;;;;;7397384;19;2129;-41
2022/01/21 12:33:53;;;;;;;;;;;;;;;;;;7390205;19;2226;-41
2022/01/21 12:36:21;;;;;;;;;;;;;;;;;;7392622;19;2133;-42
2022/01/21 12:41:18;;;;;;;;;;;;;;;;;;7392749;19;2131;-42
2022/01/21 12:43:55;;;;;;;;;;;;;;;;;;7392232;19;2160;-43
2022/01/21 12:46:22;;;;;;;;;;;;;;;;;;7392182;19;2058;-43
2022/01/21 12:48:50;;;;;;;;;;;;;;;;;;7392789;19;2158;-41
2022/01/21 12:52:12;;;;;;;;;;;;;;;;;;7390352;19;1730;-41
2022/01/21 12:57:25;;;;;;;;;;;;;;;;;;7389836;19;2080;-41
2022/01/21 12:59:56;;;;;;;;;;;;;;;;;;7392081;19;2014;-42
2022/01/21 13:02:25;;;;;;;;;;;;;;;;;;7393249;19;2005;-44
2022/01/21 13:04:58;;;;;;;;;;;;;;;;;;7391451;19;2246;-44
2022/01/21 13:07:42;;;;;;;;;;;;;;;;;;7390994;19;2144;-48
2022/01/21 13:10:28;;;;;;;;;;;;;;;;;;7391251;19;1446;-43
2022/01/21 13:13:01;;;;;;;;;;;;;;;;;;7391698;19;2219;-42
2022/01/21 13:15:37;;;;;;;;;;;;;;;;;;7391737;19;2213;-42
2022/01/21 13:18:05;;;;;;;;;;;;;;;;;;7388663;19;2174;-41
2022/01/21 13:20:34;;;;;;;;;;;;;;;;;;7392028;19;2091;-45
2022/01/21 13:23:01;;;;;;;;;;;;;;;;;;7390844;19;2180;-42
2022/01/21 13:25:31;;;;;;;;;;;;;;;;;;7389452;19;2119;-41
2022/01/21 13:27:59;;;;;;;;;;;;;;;;;;7390769;19;2134;-46
2022/01/21 13:30:28;;;;;;;;;;;;;;;;;;7391091;19;2125;-41
2022/01/21 13:33:03;;;;;;;;;;;;;;;;;;7390269;19;2136;-45
2022/01/21 13:35:31;;;;;;;;;;;;;;;;;;7390080;19;2097;-41
2022/01/21 13:38:04;;;;;;;;;;;;;;;;;;7390797;19;2199;-45
2022/01/21 13:40:35;;;;;;;;;;;;;;;;;;7390300;19;2163;-42
2022/01/21 13:43:05;;;;;;;;;;;;;;;;;;7388863;19;2222;-44
2022/01/21 13:45:32;;;;;;;;;;;;;;;;;;7390581;19;2219;-43
2022/01/21 13:48:06;;;;;;;;;;;;;;;;;;7389912;19;2031;-51
2022/01/21 13:50:34;;;;;;;;;;;;;;;;;;7396159;19;2281;-47
2022/01/21 13:53:07;;;;;;;;;;;;;;;;;;7397924;19;2309;-46
2022/01/21 13:55:48;;;;;;;;;;;;;;;;;;7397208;19;2323;-42
2022/01/21 13:58:17;;;;;;;;;;;;;;;;;;7395872;19;2138;-43
2022/01/21 14:00:49;;;;;;;;;;;;;;;;;;7397169;19;2104;-44
2022/01/21 14:03:23;;;;;;;;;;;;;;;;;;7397746;19;2215;-44
2022/01/21 14:05:53;;;;;;;;;;;;;;;;;;7398354;19;2083;-43
2022/01/21 14:08:24;;;;;;;;;;;;;;;;;;7396835;19;2072;-44
2022/01/21 14:11:01;;;;;;;;;;;;;;;;;;7398715;19;2087;-46
2022/01/21 14:13:29;;;;;;;;;;;;;;;;;;7397025;19;2178;-43
2022/01/21 14:15:57;;;;;;;;;;;;;;;;;;7396042;19;2069;-44
2022/01/21 14:18:29;;;;;;;;;;;;;;;;;;7395110;19;2153;-42
2022/01/21 14:21:26;;;;;;;;;;;;;;;;;;7396597;19;2152;-42
2022/01/21 14:24:06;;;;;;;;;;;;;;;;;;7395510;19;2181;-43
2022/01/21 14:26:41;;;;;;;;;;;;;;;;;;7395926;19;2177;-44
2022/01/21 14:29:08;;;;;;;;;;;;;;;;;;7396554;19;2184;-47
2022/01/21 14:31:37;;;;;;;;;;;;;;;;;;7396201;19;2028;-50
2022/01/21 14:34:07;;;;;;;;;;;;;;;;;;7396298;19;2164;-47
2022/01/21 14:36:34;;;;;;;;;;;;;;;;;;7391621;19;2235;-44
2022/01/21 14:39:08;;;;;;;;;;;;;;;;;;7394702;19;2113;-48
2022/01/21 14:41:44;;;;;;;;;;;;;;;;;;7395286;19;1902;-46
2022/01/21 14:44:32;;;;;;;;;;;;;;;;;;7391397;19;2066;-47
2022/01/21 14:47:06;;;;;;;;;;;;;;;;;;7395785;19;2193;-44
2022/01/21 14:49:33;;;;;;;;;;;;;;;;;;7393448;19;2142;-43
2022/01/21 14:52:33;;;;;;;;;;;;;;;;;;7395860;19;2213;-47
2022/01/21 14:55:06;;;;;;;;;;;;;;;;;;7395544;19;2047;-43
2022/01/21 14:57:34;;;;;;;;;;;;;;;;;;7394212;19;2120;-46
2022/01/21 15:00:04;;;;;;;;;;;;;;;;;;7395599;19;2161;-45
2022/01/21 15:02:38;;;;;;;;;;;;;;;;;;7394951;19;2174;-47
2022/01/21 15:05:11;;;;;;;;;;;;;;;;;;7396081;19;2102;-46
2022/01/21 15:07:41;;;;;;;;;;;;;;;;;;7395435;19;2506;-42
2022/01/21 15:10:23;;;;;;;;;;;;;;;;;;7394876;19;1785;-46
2022/01/21 15:15:49;;;;;;;;;;;;;;;;;;7394601;19;2013;-45
2022/01/21 15:18:17;;;;;;;;;;;;;;;;;;7392933;19;2147;-48
2022/01/21 15:20:45;;;;;;;;;;;;;;;;;;7394250;19;2191;-48
2022/01/21 15:23:12;;;;;;;;;;;;;;;;;;7394764;19;2141;-42
2022/01/21 15:25:40;;;;;;;;;;;;;;;;;;7394936;19;2156;-46
2022/01/21 15:28:08;;;;;;;;;;;;;;;;;;7394081;19;2162;-45
2022/01/21 15:30:36;;;;;;;;;;;;;;;;;;7394549;19;2060;-43
2022/01/21 15:33:04;;;;;;;;;;;;;;;;;;7397400;19;2121;-48
2022/01/21 15:35:32;;;;;;;;;;;;;;;;;;7394054;19;2384;-43
2022/01/21 15:37:59;;;;;;;;;;;;;;;;;;7392188;19;2187;-46
2022/01/21 15:40:26;;;;;;;;;;;;;;;;;;7391640;19;1990;-46
2022/01/21 15:42:54;;;;;;;;;;;;;;;;;;7394243;19;2060;-44
2022/01/21 15:45:23;;;;;;;;;;;;;;;;;;7393930;19;2134;-46
2022/01/21 15:47:52;;;;;;;;;;;;;;;;;;7394395;19;2102;-42
2022/01/21 15:50:20;;;;;;;;;;;;;;;;;;7392823;19;2228;-44
2022/01/21 15:52:48;;;;;;;;;;;;;;;;;;7392756;19;2093;-42
2022/01/21 15:55:18;;;;;;;;;;;;;;;;;;7397033;19;2176;-41
2022/01/21 15:57:45;;;;;;;;;;;;;;;;;;7392208;19;2144;-43
2022/01/21 16:00:17;;;;;;;;;;;;;;;;;;7392578;19;2009;-50
2022/01/21 16:02:48;;;;;;;;;;;;;;;;;;7393951;19;2058;-43
2022/01/21 16:05:17;;;;;;;;;;;;;;;;;;7393456;19;2030;-46
2022/01/21 16:07:44;;;;;;;;;;;;;;;;;;7393557;19;2021;-45
2022/01/21 16:10:13;;;;;;;;;;;;;;;;;;7393189;19;2077;-47
2022/01/21 16:12:41;;;;;;;;;;;;;;;;;;7390658;19;2163;-45
2022/01/21 16:15:09;;;;;;;;;;;;;;;;;;7392280;19;2160;-45
2022/01/21 16:17:37;;;;;;;;;;;;;;;;;;7391213;19;2117;-50
2022/01/21 16:20:06;;;;;;;;;;;;;;;;;;7392844;19;2246;-48
2022/01/21 16:22:34;;;;;;;;;;;;;;;;;;7392890;19;2168;-47
2022/01/21 16:25:03;;;;;;;;;;;;;;;;;;7393166;19;2176;-50
2022/01/21 16:27:30;;;;;;;;;;;;;;;;;;7392563;19;2162;-54
2022/01/21 16:29:57;;;;;;;;;;;;;;;;;;7392897;19;2100;-46
2022/01/21 16:32:25;;;;;;;;;;;;;;;;;;7392987;19;2085;-47
2022/01/21 16:34:53;;;;;;;;;;;;;;;;;;7392691;19;2148;-48
2022/01/21 16:37:22;;;;;;;;;;;;;;;;;;7391500;19;2274;-47
2022/01/21 16:39:49;;;;;;;;;;;;;;;;;;7392797;19;2127;-46
2022/01/21 16:42:17;;;;;;;;;;;;;;;;;;7392137;19;2184;-43
2022/01/21 16:44:45;;;;;;;;;;;;;;;;;;7392150;19;2112;-48
2022/01/21 16:47:13;;;;;;;;;;;;;;;;;;7391828;19;2044;-51
2022/01/21 16:49:40;;;;;;;;;;;;;;;;;;7391823;19;2159;-52
2022/01/21 16:52:10;;;;;;;;;;;;;;;;;;7391728;19;2132;-49
2022/01/21 16:54:37;;;;;;;;;;;;;;;;;;7392424;19;2193;-47
2022/01/21 16:57:08;;;;;;;;;;;;;;;;;;7389967;19;2046;-50
2022/01/21 16:59:36;;;;;;;;;;;;;;;;;;7390422;19;2240;-51
2022/01/21 17:02:03;;;;;;;;;;;;;;;;;;7389935;19;2254;-51
2022/01/21 17:04:31;;;;;;;;;;;;;;;;;;7391577;19;2465;-52
2022/01/21 17:06:59;;;;;;;;;;;;;;;;;;7389364;19;2306;-42
2022/01/21 17:09:27;;;;;;;;;;;;;;;;;;7390989;19;2161;-46
2022/01/21 17:11:56;;;;;;;;;;;;;;;;;;7393887;19;2246;-43
2022/01/21 17:14:23;;;;;;;;;;;;;;;;;;7391803;19;2192;-44
2022/01/21 17:16:51;;;;;;;;;;;;;;;;;;7391622;19;2128;-44
2022/01/21 17:19:19;;;;;;;;;;;;;;;;;;7389498;19;2448;-47
2022/01/21 17:21:48;;;;;;;;;;;;;;;;;;7391197;19;2175;-42
2022/01/21 17:24:17;;;;;;;;;;;;;;;;;;7392251;19;2115;-44
2022/01/21 17:26:45;;;;;;;;;;;;;;;;;;7399086;19;2228;-44
2022/01/21 17:29:14;;;;;;;;;;;;;;;;;;7398126;19;1963;-44
2022/01/21 17:31:42;;;;;;;;;;;;;;;;;;7398875;19;2037;-44
2022/01/21 17:34:10;;;;;;;;;;;;;;;;;;7397547;19;2336;-43
2022/01/21 17:36:38;;;;;;;;;;;;;;;;;;7397398;19;2247;-42
2022/01/21 17:39:06;;;;;;;;;;;;;;;;;;7398098;19;2103;-41
2022/01/21 17:41:36;;;;;;;;;;;;;;;;;;7397975;19;2108;-41
2022/01/21 17:44:09;;;;;;;;;;;;;;;;;;7398387;19;2085;-48
2022/01/21 17:46:37;;;;;;;;;;;;;;;;;;7397909;19;2098;-42
2022/01/21 17:49:04;;;;;;;;;;;;;;;;;;7398284;19;2100;-46
2022/01/21 17:51:31;;;;;;;;;;;;;;;;;;7397966;19;2100;-41
2022/01/21 17:53:59;;;;;;;;;;;;;;;;;;7397365;19;2199;-44
2022/01/21 17:56:26;;;;;;;;;;;;;;;;;;7397645;19;2168;-41
2022/01/21 17:58:53;;;;;;;;;;;;;;;;;;7395412;19;2058;-44
2022/01/21 18:01:21;;;;;;;;;;;;;;;;;;7398655;19;2017;-44
2022/01/21 18:03:48;;;;;;;;;;;;;;;;;;7397109;19;2027;-45
2022/01/21 18:06:16;;;;;;;;;;;;;;;;;;7397577;19;2169;-46
2022/01/21 18:08:51;;;;;;;;;;;;;;;;;;7397074;19;2183;-45
2022/01/21 18:11:24;;;;;;;;;;;;;;;;;;7399050;19;2144;-42
2022/01/21 18:13:52;;;;;;;;;;;;;;;;;;7397736;19;2216;-45
2022/01/21 18:16:20;;;;;;;;;;;;;;;;;;7397261;19;2213;-43
2022/01/21 18:18:48;;;;;;;;;;;;;;;;;;7393774;19;2178;-43
2022/01/21 18:21:16;;;;;;;;;;;;;;;;;;7396596;19;2050;-43